sensor_id;sensor_type;location;lat;lon;timestamp;pressure;altitude;pressure_sealevel;temperature;humidity
1029;BME280;503;48.120;11.488;2022-10-17T00:01:11;95986.72;;;16.67;65.43
1029;BME280;503;48.120;11.488;2022-10-17T00:03:37;95995.72;;;16.62;65.57
1029;BME280;503;48.120;11.488;2022-10-17T00:06:06;95993.09;;;16.54;65.74
1029;BME280;503;48.120;11.488;2022-10-17T00:08:32;95996.88;;;16.53;65.99
1029;BME280;503;48.120;11.488;2022-10-17T00:10:58;95998.47;;;16.54;65.80
1029;BME280;503;48.120;11.488;2022-10-17T00:13:24;95998.59;;;16.57;65.45
1029;BME280;503;48.120;11.488;2022-10-17T00:15:49;96000.03;;;16.55;65.59
1029;BME280;503;48.120;11.488;2022-10-17T00:18:14;95997.03;;;16.56;65.64
1029;BME280;503;48.120;11.488;2022-10-17T00:20:40;95999.72;;;16.56;65.27
1029;BME280;503;48.120;11.488;2022-10-17T00:23:05;95995.78;;;16.54;65.21
1029;BME280;503;48.120;11.488;2022-10-17T00:25:30;95993.72;;;16.51;65.15
1029;BME280;503;48.120;11.488;2022-10-17T00:27:55;95995.94;;;16.49;65.18
1029;BME280;503;48.120;11.488;2022-10-17T00:30:20;95994.34;;;16.48;65.24
1029;BME280;503;48.120;11.488;2022-10-17T00:32:46;95991.06;;;16.42;65.38
1029;BME280;503;48.120;11.488;2022-10-17T00:35:11;95990.59;;;16.40;65.30
1029;BME280;503;48.120;11.488;2022-10-17T00:37:36;95987.28;;;16.34;65.36
1029;BME280;503;48.120;11.488;2022-10-17T00:40:02;96000.56;;;16.31;65.41
1029;BME280;503;48.120;11.488;2022-10-17T00:42:27;96003.75;;;16.24;65.40
1029;BME280;503;48.120;11.488;2022-10-17T00:44:56;96000.09;;;16.20;65.73
1029;BME280;503;48.120;11.488;2022-10-17T00:47:22;96005.47;;;16.20;65.64
1029;BME280;503;48.120;11.488;2022-10-17T00:49:48;96001.84;;;16.16;65.68
1029;BME280;503;48.120;11.488;2022-10-17T00:52:14;96005.31;;;16.17;65.72
1029;BME280;503;48.120;11.488;2022-10-17T00:54:45;96005.03;;;16.09;65.66
1029;BME280;503;48.120;11.488;2022-10-17T00:57:12;96013.22;;;16.04;65.91
1029;BME280;503;48.120;11.488;2022-10-17T00:59:38;96008.97;;;16.03;65.99
1029;BME280;503;48.120;11.488;2022-10-17T01:02:22;96010.56;;;16.04;65.96
1029;BME280;503;48.120;11.488;2022-10-17T01:04:48;96009.28;;;16.02;65.65
1029;BME280;503;48.120;11.488;2022-10-17T01:07:14;96002.19;;;15.97;65.52
1029;BME280;503;48.120;11.488;2022-10-17T01:09:39;96014.66;;;15.93;65.27
1029;BME280;503;48.120;11.488;2022-10-17T01:17:21;96008.34;;;15.80;65.92
1029;BME280;503;48.120;11.488;2022-10-17T01:36:27;96002.50;;;15.70;66.23
1029;BME280;503;48.120;11.488;2022-10-17T01:39:01;96001.41;;;15.71;66.05
1029;BME280;503;48.120;11.488;2022-10-17T01:41:38;96000.44;;;15.75;66.22
1029;BME280;503;48.120;11.488;2022-10-17T01:47:10;96001.56;;;15.74;65.74
1029;BME280;503;48.120;11.488;2022-10-17T01:49:37;96007.97;;;15.47;66.79
1029;BME280;503;48.120;11.488;2022-10-17T01:52:10;96013.38;;;15.56;66.51
1029;BME280;503;48.120;11.488;2022-10-17T01:54:57;96009.25;;;15.58;66.11
1029;BME280;503;48.120;11.488;2022-10-17T01:57:28;96009.25;;;15.58;65.92
1029;BME280;503;48.120;11.488;2022-10-17T01:59:55;96007.19;;;15.55;66.05
1029;BME280;503;48.120;11.488;2022-10-17T02:02:20;96009.41;;;15.53;65.71
1029;BME280;503;48.120;11.488;2022-10-17T02:04:47;96006.25;;;15.51;65.76
1029;BME280;503;48.120;11.488;2022-10-17T02:07:13;96005.47;;;15.51;66.13
1029;BME280;503;48.120;11.488;2022-10-17T02:09:38;96004.19;;;15.48;66.22
1029;BME280;503;48.120;11.488;2022-10-17T02:19:45;96007.97;;;15.39;66.11
1029;BME280;503;48.120;11.488;2022-10-17T02:22:15;96000.56;;;15.36;65.86
1029;BME280;503;48.120;11.488;2022-10-17T02:24:46;96000.41;;;15.32;66.04
1029;BME280;503;48.120;11.488;2022-10-17T02:30:09;96003.22;;;15.27;66.11
1029;BME280;503;48.120;11.488;2022-10-17T02:35:04;96005.56;;;15.20;66.83
1029;BME280;503;48.120;11.488;2022-10-17T02:37:32;96001.00;;;15.20;66.63
1029;BME280;503;48.120;11.488;2022-10-17T02:39:58;96002.41;;;15.18;66.37
1029;BME280;503;48.120;11.488;2022-10-17T02:42:24;96000.84;;;15.17;66.13
1029;BME280;503;48.120;11.488;2022-10-17T02:44:50;95999.25;;;15.16;65.81
1029;BME280;503;48.120;11.488;2022-10-17T02:47:33;95999.25;;;15.16;66.00
1029;BME280;503;48.120;11.488;2022-10-17T02:50:00;95997.81;;;15.09;65.85
1029;BME280;503;48.120;11.488;2022-10-17T02:52:31;95988.97;;;15.09;66.02
1029;BME280;503;48.120;11.488;2022-10-17T02:55:02;96000.66;;;15.13;66.30
1029;BME280;503;48.120;11.488;2022-10-17T02:57:33;95992.63;;;15.13;66.15
1029;BME280;503;48.120;11.488;2022-10-17T03:00:01;95992.16;;;15.11;66.51
1029;BME280;503;48.120;11.488;2022-10-17T03:02:36;95990.09;;;15.08;66.34
1029;BME280;503;48.120;11.488;2022-10-17T03:05:02;95994.47;;;15.04;66.45
1029;BME280;503;48.120;11.488;2022-10-17T03:07:27;96000.16;;;15.02;66.53
1029;BME280;503;48.120;11.488;2022-10-17T03:09:52;95998.41;;;14.98;66.95
1029;BME280;503;48.120;11.488;2022-10-17T03:12:17;96009.47;;;15.05;66.72
1029;BME280;503;48.120;11.488;2022-10-17T03:14:43;96008.47;;;14.92;67.51
1029;BME280;503;48.120;11.488;2022-10-17T03:17:08;96012.75;;;15.02;67.04
1029;BME280;503;48.120;11.488;2022-10-17T03:19:33;96014.34;;;15.03;66.61
1029;BME280;503;48.120;11.488;2022-10-17T03:21:59;96001.13;;;15.06;66.43
1029;BME280;503;48.120;11.488;2022-10-17T03:24:24;96003.31;;;15.04;66.12
1029;BME280;503;48.120;11.488;2022-10-17T03:26:50;95999.38;;;15.02;66.36
1029;BME280;503;48.120;11.488;2022-10-17T03:29:15;96007.41;;;15.02;66.31
1029;BME280;503;48.120;11.488;2022-10-17T03:31:40;96007.41;;;15.02;66.10
1029;BME280;503;48.120;11.488;2022-10-17T03:34:05;96015.44;;;15.02;66.27
1029;BME280;503;48.120;11.488;2022-10-17T03:36:30;96020.28;;;14.91;66.43
1029;BME280;503;48.120;11.488;2022-10-17T03:38:56;96024.22;;;14.94;66.79
1029;BME280;503;48.120;11.488;2022-10-17T03:41:21;96018.72;;;14.90;66.71
1029;BME280;503;48.120;11.488;2022-10-17T03:43:46;96016.34;;;14.89;66.27
1029;BME280;503;48.120;11.488;2022-10-17T03:46:11;96018.53;;;14.87;66.53
1029;BME280;503;48.120;11.488;2022-10-17T03:48:36;96019.94;;;14.84;67.13
1029;BME280;503;48.120;11.488;2022-10-17T03:51:06;96013.19;;;14.87;67.03
1029;BME280;503;48.120;11.488;2022-10-17T03:53:32;96030.09;;;14.42;68.50
1029;BME280;503;48.120;11.488;2022-10-17T03:56:07;96026.22;;;14.48;68.69
1029;BME280;503;48.120;11.488;2022-10-17T03:58:33;96018.44;;;14.61;67.91
1029;BME280;503;48.120;11.488;2022-10-17T04:01:02;96021.97;;;14.78;67.50
1029;BME280;503;48.120;11.488;2022-10-17T04:03:27;96022.59;;;14.75;66.61
1029;BME280;503;48.120;11.488;2022-10-17T04:05:53;96022.16;;;14.51;67.54
1029;BME280;503;48.120;11.488;2022-10-17T04:08:18;96034.69;;;14.73;67.31
1029;BME280;503;48.120;11.488;2022-10-17T04:10:43;96030.31;;;14.77;66.88
1029;BME280;503;48.120;11.488;2022-10-17T04:13:08;96028.09;;;14.79;66.44
1029;BME280;503;48.120;11.488;2022-10-17T04:15:34;96031.41;;;14.76;66.68
1029;BME280;503;48.120;11.488;2022-10-17T04:17:59;96025.88;;;14.72;66.57
1029;BME280;503;48.120;11.488;2022-10-17T04:20:24;96030.13;;;14.73;66.31
1029;BME280;503;48.120;11.488;2022-10-17T04:22:49;96027.31;;;14.70;66.09
1029;BME280;503;48.120;11.488;2022-10-17T04:25:14;96028.22;;;14.65;66.47
1029;BME280;503;48.120;11.488;2022-10-17T04:27:39;96028.81;;;14.62;65.97
1029;BME280;503;48.120;11.488;2022-10-17T04:30:05;96035.53;;;14.51;66.40
1029;BME280;503;48.120;11.488;2022-10-17T04:32:30;96033.69;;;14.38;66.79
1029;BME280;503;48.120;11.488;2022-10-17T04:34:55;96038.47;;;14.18;67.66
1029;BME280;503;48.120;11.488;2022-10-17T04:37:21;96041.06;;;13.87;69.33
1029;BME280;503;48.120;11.488;2022-10-17T04:39:46;96041.75;;;14.15;69.14
1029;BME280;503;48.120;11.488;2022-10-17T04:42:11;96040.59;;;14.30;67.92
1029;BME280;503;48.120;11.488;2022-10-17T04:44:36;96038.50;;;14.27;67.54
1029;BME280;503;48.120;11.488;2022-10-17T04:47:01;96041.38;;;14.08;68.24
1029;BME280;503;48.120;11.488;2022-10-17T04:49:27;96047.56;;;14.17;68.21
1029;BME280;503;48.120;11.488;2022-10-17T04:51:52;96049.84;;;14.24;67.80
1029;BME280;503;48.120;11.488;2022-10-17T04:54:17;96054.31;;;14.37;67.50
1029;BME280;503;48.120;11.488;2022-10-17T04:56:42;96049.16;;;14.41;67.20
1029;BME280;503;48.120;11.488;2022-10-17T04:59:07;96040.81;;;14.42;67.24
1029;BME280;503;48.120;11.488;2022-10-17T05:01:33;96053.50;;;14.28;67.32
1029;BME280;503;48.120;11.488;2022-10-17T05:03:58;96056.41;;;14.40;67.26
1029;BME280;503;48.120;11.488;2022-10-17T05:06:24;96020.22;;;14.20;66.78
1029;BME280;503;48.120;11.488;2022-10-17T05:08:51;96058.94;;;14.45;66.72
1029;BME280;503;48.120;11.488;2022-10-17T05:11:17;96053.09;;;14.43;66.22
1029;BME280;503;48.120;11.488;2022-10-17T05:13:43;96052.31;;;14.43;66.10
1029;BME280;503;48.120;11.488;2022-10-17T05:16:08;96052.63;;;14.41;66.41
1029;BME280;503;48.120;11.488;2022-10-17T05:18:34;96054.81;;;14.39;66.15
1029;BME280;503;48.120;11.488;2022-10-17T05:21:01;96064.22;;;14.37;66.03
1029;BME280;503;48.120;11.488;2022-10-17T05:23:28;96071.78;;;14.35;66.18
1029;BME280;503;48.120;11.488;2022-10-17T05:25:54;96064.66;;;14.30;66.04
1029;BME280;503;48.120;11.488;2022-10-17T05:28:19;96066.56;;;14.29;66.14
1029;BME280;503;48.120;11.488;2022-10-17T05:30:44;96063.88;;;14.29;66.47
1029;BME280;503;48.120;11.488;2022-10-17T05:33:10;96068.72;;;14.27;66.45
1029;BME280;503;48.120;11.488;2022-10-17T05:35:35;96077.06;;;14.26;66.18
1029;BME280;503;48.120;11.488;2022-10-17T05:38:00;96077.69;;;14.23;66.34
1029;BME280;503;48.120;11.488;2022-10-17T05:40:25;96080.84;;;14.25;66.29
1029;BME280;503;48.120;11.488;2022-10-17T05:42:51;96084.78;;;14.27;65.98
1029;BME280;503;48.120;11.488;2022-10-17T05:45:16;96083.72;;;14.28;65.75
1029;BME280;503;48.120;11.488;2022-10-17T05:47:41;96086.88;;;14.30;65.81
1029;BME280;503;48.120;11.488;2022-10-17T05:50:07;96091.91;;;14.32;65.93
1029;BME280;503;48.120;11.488;2022-10-17T05:52:32;96095.09;;;14.34;66.04
1029;BME280;503;48.120;11.488;2022-10-17T05:54:57;96096.00;;;14.29;66.19
1029;BME280;503;48.120;11.488;2022-10-17T05:57:25;96108.75;;;14.32;66.25
1029;BME280;503;48.120;11.488;2022-10-17T05:59:51;96116.97;;;14.36;66.06
1029;BME280;503;48.120;11.488;2022-10-17T06:02:16;96105.69;;;14.39;66.19
1029;BME280;503;48.120;11.488;2022-10-17T06:04:41;96114.19;;;14.41;65.66
1029;BME280;503;48.120;11.488;2022-10-17T06:07:10;96116.53;;;14.43;66.01
1029;BME280;503;48.120;11.488;2022-10-17T06:09:37;96119.41;;;14.46;65.81
1029;BME280;503;48.120;11.488;2022-10-17T06:12:02;96121.22;;;14.51;66.12
1029;BME280;503;48.120;11.488;2022-10-17T06:14:28;96122.66;;;14.57;66.05
1029;BME280;503;48.120;11.488;2022-10-17T06:16:53;96119.38;;;14.60;65.49
1029;BME280;503;48.120;11.488;2022-10-17T06:19:18;96119.53;;;14.64;65.49
1029;BME280;503;48.120;11.488;2022-10-17T06:21:43;96118.94;;;14.67;65.70
1029;BME280;503;48.120;11.488;2022-10-17T06:24:09;96119.94;;;14.71;65.76
1029;BME280;503;48.120;11.488;2022-10-17T06:26:34;96111.88;;;14.71;65.96
1029;BME280;503;48.120;11.488;2022-10-17T06:28:59;96110.84;;;14.80;66.16
1029;BME280;503;48.120;11.488;2022-10-17T06:31:24;96115.16;;;14.90;65.52
1029;BME280;503;48.120;11.488;2022-10-17T06:33:49;96113.59;;;14.98;65.67
1029;BME280;503;48.120;11.488;2022-10-17T06:36:15;96107.78;;;15.04;65.02
1029;BME280;503;48.120;11.488;2022-10-17T06:38:40;96112.25;;;15.09;65.00
1029;BME280;503;48.120;11.488;2022-10-17T06:41:07;96119.84;;;15.16;65.37
1029;BME280;503;48.120;11.488;2022-10-17T06:43:34;96118.47;;;15.27;65.66
1029;BME280;503;48.120;11.488;2022-10-17T06:46:00;96118.19;;;15.37;65.09
1029;BME280;503;48.120;11.488;2022-10-17T06:48:25;96122.03;;;15.53;64.86
1029;BME280;503;48.120;11.488;2022-10-17T06:50:51;96129.22;;;15.67;64.50
1029;BME280;503;48.120;11.488;2022-10-17T06:53:16;96130.16;;;15.79;63.78
1029;BME280;503;48.120;11.488;2022-10-17T06:55:41;96140.59;;;15.90;63.44
1029;BME280;503;48.120;11.488;2022-10-17T06:58:06;96138.91;;;16.02;63.41
1029;BME280;503;48.120;11.488;2022-10-17T07:00:32;96139.06;;;16.15;63.17
1029;BME280;503;48.120;11.488;2022-10-17T07:02:57;96151.06;;;16.26;62.70
1029;BME280;503;48.120;11.488;2022-10-17T07:05:22;96144.59;;;16.35;62.34
1029;BME280;503;48.120;11.488;2022-10-17T07:07:47;96151.53;;;16.45;62.32
1029;BME280;503;48.120;11.488;2022-10-17T07:10:13;96152.34;;;16.54;62.40
1029;BME280;503;48.120;11.488;2022-10-17T07:12:38;96154.22;;;16.62;62.66
1029;BME280;503;48.120;11.488;2022-10-17T07:15:03;96151.56;;;16.71;62.04
1029;BME280;503;48.120;11.488;2022-10-17T07:17:29;96157.88;;;16.84;61.66
1029;BME280;503;48.120;11.488;2022-10-17T07:19:54;96165.78;;;16.89;61.55
1029;BME280;503;48.120;11.488;2022-10-17T07:22:20;96164.78;;;17.02;61.24
1029;BME280;503;48.120;11.488;2022-10-17T07:24:45;96167.13;;;17.12;61.20
1029;BME280;503;48.120;11.488;2022-10-17T07:27:10;96176.13;;;17.17;60.52
1029;BME280;503;48.120;11.488;2022-10-17T07:29:36;96176.25;;;17.29;60.73
1029;BME280;503;48.120;11.488;2022-10-17T07:32:01;96180.31;;;17.44;60.41
1029;BME280;503;48.120;11.488;2022-10-17T07:34:30;96184.41;;;17.50;59.88
1029;BME280;503;48.120;11.488;2022-10-17T07:36:55;96183.88;;;17.09;59.39
1029;BME280;503;48.120;11.488;2022-10-17T07:39:21;96189.69;;;17.37;59.37
1029;BME280;503;48.120;11.488;2022-10-17T07:41:47;96188.97;;;16.94;59.42
1029;BME280;503;48.120;11.488;2022-10-17T07:44:12;96192.59;;;17.15;59.16
1029;BME280;503;48.120;11.488;2022-10-17T07:46:39;96193.41;;;17.54;58.45
1029;BME280;503;48.120;11.488;2022-10-17T07:49:04;96191.31;;;17.77;57.58
1029;BME280;503;48.120;11.488;2022-10-17T07:51:29;96188.91;;;18.05;56.42
1029;BME280;503;48.120;11.488;2022-10-17T07:53:54;96181.06;;;18.21;56.16
1029;BME280;503;48.120;11.488;2022-10-17T07:56:20;96187.31;;;17.83;56.85
1029;BME280;503;48.120;11.488;2022-10-17T07:58:48;96193.78;;;18.11;56.70
1029;BME280;503;48.120;11.488;2022-10-17T08:01:13;96192.75;;;18.25;56.29
1029;BME280;503;48.120;11.488;2022-10-17T08:03:40;96202.97;;;18.40;56.02
1029;BME280;503;48.120;11.488;2022-10-17T08:06:05;96197.50;;;18.49;55.64
1029;BME280;503;48.120;11.488;2022-10-17T08:08:30;96196.50;;;18.32;56.01
1029;BME280;503;48.120;11.488;2022-10-17T08:11:00;96198.50;;;18.86;55.88
1029;BME280;503;48.120;11.488;2022-10-17T08:13:25;96203.03;;;18.94;54.90
1029;BME280;503;48.120;11.488;2022-10-17T08:15:50;96198.09;;;18.96;55.16
1029;BME280;503;48.120;11.488;2022-10-17T08:18:16;96197.47;;;19.11;54.47
1029;BME280;503;48.120;11.488;2022-10-17T08:20:42;96194.41;;;19.58;54.22
1029;BME280;503;48.120;11.488;2022-10-17T08:23:07;96194.63;;;19.41;53.96
1029;BME280;503;48.120;11.488;2022-10-17T08:25:33;96197.09;;;19.46;53.46
1029;BME280;503;48.120;11.488;2022-10-17T08:27:58;96197.13;;;19.13;53.29
1029;BME280;503;48.120;11.488;2022-10-17T08:30:23;96197.34;;;19.53;53.71
1029;BME280;503;48.120;11.488;2022-10-17T08:32:48;96201.44;;;20.08;52.46
1029;BME280;503;48.120;11.488;2022-10-17T08:35:14;96190.28;;;20.22;51.64
1029;BME280;503;48.120;11.488;2022-10-17T08:37:39;96191.81;;;20.35;51.02
1029;BME280;503;48.120;11.488;2022-10-17T08:40:06;96191.88;;;19.98;50.62
1029;BME280;503;48.120;11.488;2022-10-17T08:47:52;96200.75;;;19.62;50.77
1029;BME280;503;48.120;11.488;2022-10-17T08:52:48;96191.91;;;19.86;50.37
1029;BME280;503;48.120;11.488;2022-10-17T08:55:18;96202.03;;;20.02;50.16
1029;BME280;503;48.120;11.488;2022-10-17T08:57:46;96195.81;;;20.01;50.35
1029;BME280;503;48.120;11.488;2022-10-17T09:00:16;96201.97;;;20.38;49.72
1029;BME280;503;48.120;11.488;2022-10-17T09:08:06;96195.03;;;21.21;48.66
1029;BME280;503;48.120;11.488;2022-10-17T09:10:48;96197.63;;;21.02;48.21
1029;BME280;503;48.120;11.488;2022-10-17T09:13:18;96197.03;;;21.52;47.75
1029;BME280;503;48.120;11.488;2022-10-17T09:18:17;96191.50;;;20.89;47.51
1029;BME280;503;48.120;11.488;2022-10-17T09:20:46;96200.22;;;20.70;47.66
1029;BME280;503;48.120;11.488;2022-10-17T09:23:16;96201.75;;;21.12;46.96
1029;BME280;503;48.120;11.488;2022-10-17T09:25:44;96208.38;;;20.86;46.63
1029;BME280;503;48.120;11.488;2022-10-17T09:28:14;96201.31;;;21.10;46.96
1029;BME280;503;48.120;11.488;2022-10-17T09:30:43;96207.78;;;20.93;46.87
1029;BME280;503;48.120;11.488;2022-10-17T09:33:16;96216.75;;;20.81;46.65
1029;BME280;503;48.120;11.488;2022-10-17T09:35:42;96201.84;;;21.59;45.35
1029;BME280;503;48.120;11.488;2022-10-17T09:38:17;96207.22;;;20.99;46.83
1029;BME280;503;48.120;11.488;2022-10-17T09:40:43;96213.81;;;21.14;46.34
1029;BME280;503;48.120;11.488;2022-10-17T09:43:10;96210.56;;;21.37;45.84
1029;BME280;503;48.120;11.488;2022-10-17T09:45:39;96207.78;;;21.21;46.20
1029;BME280;503;48.120;11.488;2022-10-17T09:48:10;96202.47;;;21.68;44.86
1029;BME280;503;48.120;11.488;2022-10-17T09:50:38;96206.06;;;22.39;44.04
1029;BME280;503;48.120;11.488;2022-10-17T09:53:21;96209.25;;;21.94;45.08
1029;BME280;503;48.120;11.488;2022-10-17T09:55:57;96211.66;;;22.11;44.42
1029;BME280;503;48.120;11.488;2022-10-17T09:58:23;96218.25;;;21.98;43.82
1029;BME280;503;48.120;11.488;2022-10-17T10:00:48;96217.56;;;21.85;45.14
1029;BME280;503;48.120;11.488;2022-10-17T10:05:39;96208.66;;;21.85;43.92
1029;BME280;503;48.120;11.488;2022-10-17T10:08:11;96218.63;;;21.80;44.70
1029;BME280;503;48.120;11.488;2022-10-17T10:10:37;96218.59;;;22.28;44.70
1029;BME280;503;48.120;11.488;2022-10-17T10:15:39;96219.25;;;22.41;44.50
1029;BME280;503;48.120;11.488;2022-10-17T10:18:48;96223.53;;;22.42;44.38
1029;BME280;503;48.120;11.488;2022-10-17T10:23:28;96222.41;;;22.78;43.54
1029;BME280;503;48.120;11.488;2022-10-17T10:25:54;96217.88;;;22.66;42.84
1029;BME280;503;48.120;11.488;2022-10-17T10:28:20;96217.28;;;22.57;43.20
1029;BME280;503;48.120;11.488;2022-10-17T10:30:48;96213.97;;;23.41;42.35
1029;BME280;503;48.120;11.488;2022-10-17T10:33:15;96222.19;;;23.45;41.31
1029;BME280;503;48.120;11.488;2022-10-17T10:35:43;96216.72;;;23.02;42.16
1029;BME280;503;48.120;11.488;2022-10-17T10:38:15;96220.72;;;23.70;40.59
1029;BME280;503;48.120;11.488;2022-10-17T10:40:45;96221.09;;;23.49;40.58
1029;BME280;503;48.120;11.488;2022-10-17T10:45:56;96220.25;;;23.45;40.91
1029;BME280;503;48.120;11.488;2022-10-17T10:50:55;96211.44;;;23.75;40.38
1029;BME280;503;48.120;11.488;2022-10-17T10:53:26;96210.53;;;23.90;40.58
1029;BME280;503;48.120;11.488;2022-10-17T10:55:57;96212.69;;;23.35;40.24
1029;BME280;503;48.120;11.488;2022-10-17T10:58:38;96212.28;;;23.79;39.81
1029;BME280;503;48.120;11.488;2022-10-17T11:01:08;96211.03;;;23.96;38.80
1029;BME280;503;48.120;11.488;2022-10-17T11:03:49;96214.66;;;23.80;40.76
1029;BME280;503;48.120;11.488;2022-10-17T11:06:18;96212.50;;;23.67;40.34
1029;BME280;503;48.120;11.488;2022-10-17T11:08:47;96214.78;;;23.65;39.98
1029;BME280;503;48.120;11.488;2022-10-17T11:11:15;96207.34;;;24.34;39.16
1029;BME280;503;48.120;11.488;2022-10-17T11:13:50;96196.81;;;24.59;38.97
1029;BME280;503;48.120;11.488;2022-10-17T11:21:29;96199.34;;;24.45;39.37
1029;BME280;503;48.120;11.488;2022-10-17T11:26:44;96206.47;;;24.26;39.53
1029;BME280;503;48.120;11.488;2022-10-17T11:29:10;96202.59;;;24.84;38.60
1029;BME280;503;48.120;11.488;2022-10-17T11:31:38;96199.59;;;24.62;37.93
1029;BME280;503;48.120;11.488;2022-10-17T11:34:14;96196.38;;;24.83;38.04
1029;BME280;503;48.120;11.488;2022-10-17T11:36:44;96197.78;;;25.04;37.70
1029;BME280;503;48.120;11.488;2022-10-17T11:39:15;96194.63;;;24.68;38.42
1029;BME280;503;48.120;11.488;2022-10-17T11:41:46;96191.16;;;24.71;38.34
1029;BME280;503;48.120;11.488;2022-10-17T11:49:59;96188.38;;;25.31;36.97
1029;BME280;503;48.120;11.488;2022-10-17T11:52:29;96196.41;;;25.58;36.44
1029;BME280;503;48.120;11.488;2022-10-17T11:54:59;96195.63;;;25.57;36.73
1029;BME280;503;48.120;11.488;2022-10-17T12:00:03;96195.84;;;25.04;35.39
1029;BME280;503;48.120;11.488;2022-10-17T12:02:40;96190.50;;;24.81;35.33
1029;BME280;503;48.120;11.488;2022-10-17T12:07:41;96193.41;;;25.29;34.88
1029;BME280;503;48.120;11.488;2022-10-17T12:12:49;96190.75;;;25.03;35.00
1029;BME280;503;48.120;11.488;2022-10-17T12:18:00;96177.53;;;25.79;34.83
1029;BME280;503;48.120;11.488;2022-10-17T12:22:53;96185.53;;;26.64;33.61
1029;BME280;503;48.120;11.488;2022-10-17T12:25:20;96179.34;;;26.82;32.88
1029;BME280;503;48.120;11.488;2022-10-17T12:27:46;96177.84;;;26.88;32.54
1029;BME280;503;48.120;11.488;2022-10-17T12:30:22;96177.88;;;26.99;32.64
1029;BME280;503;48.120;11.488;2022-10-17T12:35:33;96180.72;;;27.24;31.41
1029;BME280;503;48.120;11.488;2022-10-17T12:38:02;96173.38;;;26.55;31.28
1029;BME280;503;48.120;11.488;2022-10-17T12:42:59;96167.50;;;26.42;31.36
1029;BME280;503;48.120;11.488;2022-10-17T12:48:10;96170.75;;;26.76;30.70
1029;BME280;503;48.120;11.488;2022-10-17T12:53:19;96178.72;;;27.10;29.13
1029;BME280;503;48.120;11.488;2022-10-17T12:55:48;96180.63;;;26.29;28.87
1029;BME280;503;48.120;11.488;2022-10-17T12:58:15;96181.66;;;26.69;28.69
1029;BME280;503;48.120;11.488;2022-10-17T13:03:10;96174.06;;;27.21;28.20
1029;BME280;503;48.120;11.488;2022-10-17T13:05:37;96170.63;;;27.60;28.55
1029;BME280;503;48.120;11.488;2022-10-17T13:08:05;96176.44;;;27.47;29.95
1029;BME280;503;48.120;11.488;2022-10-17T13:10:32;96170.84;;;26.98;28.80
1029;BME280;503;48.120;11.488;2022-10-17T13:13:41;96181.66;;;26.69;28.98
1029;BME280;503;48.120;11.488;2022-10-17T13:15:51;96164.31;;;27.31;28.89
1029;BME280;503;48.120;11.488;2022-10-17T13:18:18;96174.94;;;27.79;28.47
1029;BME280;503;48.120;11.488;2022-10-17T13:20:52;96174.16;;;27.92;28.57
1029;BME280;503;48.120;11.488;2022-10-17T13:23:21;96171.81;;;27.73;29.22
1029;BME280;503;48.120;11.488;2022-10-17T13:25:47;96163.22;;;27.92;29.50
1029;BME280;503;48.120;11.488;2022-10-17T13:28:12;96172.56;;;27.63;30.13
1029;BME280;503;48.120;11.488;2022-10-17T13:30:38;96175.72;;;27.90;30.10
1029;BME280;503;48.120;11.488;2022-10-17T13:33:15;96180.41;;;27.79;29.93
1029;BME280;503;48.120;11.488;2022-10-17T13:35:40;96174.06;;;27.14;30.45
1029;BME280;503;48.120;11.488;2022-10-17T13:38:06;96176.28;;;26.94;29.73
1029;BME280;503;48.120;11.488;2022-10-17T13:40:41;96174.72;;;26.89;30.32
1029;BME280;503;48.120;11.488;2022-10-17T13:43:12;96173.53;;;26.90;30.29
1029;BME280;503;48.120;11.488;2022-10-17T13:45:39;96182.78;;;26.57;30.81
1029;BME280;503;48.120;11.488;2022-10-17T13:48:16;96173.56;;;26.25;31.93
1029;BME280;503;48.120;11.488;2022-10-17T13:50:42;96183.00;;;26.34;32.21
1029;BME280;503;48.120;11.488;2022-10-17T13:56:02;96179.25;;;26.53;32.04
1029;BME280;503;48.120;11.488;2022-10-17T13:58:29;96170.44;;;26.88;31.55
1029;BME280;503;48.120;11.488;2022-10-17T14:00:55;96177.38;;;26.09;32.39
1029;BME280;503;48.120;11.488;2022-10-17T14:03:21;96175.59;;;27.11;31.56
1029;BME280;503;48.120;11.488;2022-10-17T14:08:31;96179.56;;;26.44;31.79
1029;BME280;503;48.120;11.488;2022-10-17T14:10:57;96181.53;;;26.51;32.11
1029;BME280;503;48.120;11.488;2022-10-17T14:13:23;96181.09;;;27.29;30.67
1029;BME280;503;48.120;11.488;2022-10-17T14:15:49;96174.72;;;26.89;31.42
1029;BME280;503;48.120;11.488;2022-10-17T14:18:28;96183.25;;;26.81;31.87
1029;BME280;503;48.120;11.488;2022-10-17T14:20:54;96190.38;;;26.30;32.29
1029;BME280;503;48.120;11.488;2022-10-17T14:26:04;96186.88;;;26.33;32.64
1029;BME280;503;48.120;11.488;2022-10-17T14:28:30;96188.78;;;26.22;33.38
1029;BME280;503;48.120;11.488;2022-10-17T14:31:07;96191.78;;;25.62;34.12
1029;BME280;503;48.120;11.488;2022-10-17T14:33:33;96194.66;;;26.28;33.33
1029;BME280;503;48.120;11.488;2022-10-17T14:36:02;96189.91;;;26.17;33.96
1029;BME280;503;48.120;11.488;2022-10-17T14:38:29;96201.84;;;25.99;34.09
1029;BME280;503;48.120;11.488;2022-10-17T14:40:57;96197.63;;;25.64;34.64
1029;BME280;503;48.120;11.488;2022-10-17T14:43:24;96202.53;;;25.85;34.45
1029;BME280;503;48.120;11.488;2022-10-17T14:45:50;96204.03;;;25.82;34.58
1029;BME280;503;48.120;11.488;2022-10-17T14:48:16;96194.16;;;26.11;33.40
1029;BME280;503;48.120;11.488;2022-10-17T14:51:03;96192.13;;;26.05;33.61
1029;BME280;503;48.120;11.488;2022-10-17T14:53:27;96200.66;;;26.00;33.41
1029;BME280;503;48.120;11.488;2022-10-17T14:55:58;96210.16;;;26.16;33.46
1029;BME280;503;48.120;11.488;2022-10-17T14:58:27;96217.75;;;25.93;34.16
1029;BME280;503;48.120;11.488;2022-10-17T15:00:53;96203.00;;;25.57;34.72
1029;BME280;503;48.120;11.488;2022-10-17T15:03:18;96207.38;;;25.65;35.07
1029;BME280;503;48.120;11.488;2022-10-17T15:05:44;96207.50;;;25.76;34.48
1029;BME280;503;48.120;11.488;2022-10-17T15:08:16;96205.00;;;25.60;35.45
1029;BME280;503;48.120;11.488;2022-10-17T15:10:42;96213.81;;;25.46;35.61
1029;BME280;503;48.120;11.488;2022-10-17T15:13:08;96207.25;;;25.51;35.47
1029;BME280;503;48.120;11.488;2022-10-17T15:15:34;96210.16;;;25.31;35.48
1029;BME280;503;48.120;11.488;2022-10-17T15:18:00;96214.25;;;25.52;36.12